Time;durP1;ratioP1;P1;durP2;ratioP2;P2;SDS_P1;SDS_P2;PMS_P1;PMS_P2;Temp;Humidity;BMP_temperature;BMP_pressure;BME280_temperature;BME280_humidity;BME280_pressure;Samples;Min_cycle;Max_cycle;Signal;HPM_P1;HPM_P2
2021/12/10 00:01:00;;;;;;;;;;;;;;;4.05;100.00;97429.63;5093798;28;19919;-64
2021/12/10 00:03:31;;;;;;;;;;;;;;;4.03;100.00;97425.44;5043313;28;20049;-65
2021/12/10 00:06:04;;;;;;;;;;;;;;;3.78;100.00;97416.00;5089059;28;19916;-65
2021/12/10 00:08:31;;;;;;;;;;;;;;;3.88;100.00;97412.31;5088847;28;19959;-64
2021/12/10 00:10:56;;;;;;;;;;;;;;;3.89;100.00;97408.06;5096511;28;19919;-64
2021/12/10 00:13:22;;;;;;;;;;;;;;;3.88;100.00;97397.03;5096220;28;19920;-64
2021/12/10 00:15:48;;;;;;;;;;;;;;;3.84;100.00;97405.66;5099639;28;20433;-64
2021/12/10 00:18:15;;;;;;;;;;;;;;;3.80;100.00;97398.16;5096549;28;20603;-64
2021/12/10 00:20:41;;;;;;;;;;;;;;;3.94;100.00;97401.91;5093966;28;19912;-65
2021/12/10 00:23:09;;;;;;;;;;;;;;;4.16;100.00;97399.53;5091569;28;19926;-65
2021/12/10 00:25:39;;;;;;;;;;;;;;;4.12;100.00;97397.97;5093637;28;19919;-65
2021/12/10 00:28:14;;;;;;;;;;;;;;;4.12;100.00;97384.41;5092178;28;20107;-64
2021/12/10 00:30:54;;;;;;;;;;;;;;;3.75;100.00;97381.28;5090320;28;19924;-65
2021/12/10 00:33:21;;;;;;;;;;;;;;;3.98;100.00;97382.28;5091146;28;20234;-64
2021/12/10 00:35:47;;;;;;;;;;;;;;;3.95;100.00;97377.31;5091943;28;19923;-65
2021/12/10 00:38:13;;;;;;;;;;;;;;;3.87;100.00;97366.53;5092123;28;19920;-64
2021/12/10 00:40:39;;;;;;;;;;;;;;;3.62;100.00;97369.81;5092901;28;20581;-65
2021/12/10 00:43:04;;;;;;;;;;;;;;;3.90;100.00;97364.72;5092416;28;20370;-64
2021/12/10 00:45:29;;;;;;;;;;;;;;;3.51;100.00;97361.66;5091602;28;19927;-66
2021/12/10 00:47:55;;;;;;;;;;;;;;;3.97;100.00;97362.81;5075971;28;19912;-66
2021/12/10 00:50:28;;;;;;;;;;;;;;;3.96;100.00;97349.22;5075789;28;19923;-66
2021/12/10 00:52:54;;;;;;;;;;;;;;;4.00;100.00;97349.16;5092756;28;19916;-66
2021/12/10 00:55:20;;;;;;;;;;;;;;;3.69;100.00;97343.28;5075084;28;19923;-64
2021/12/10 00:57:45;;;;;;;;;;;;;;;3.85;100.00;97355.53;5092151;28;19927;-65
2021/12/10 01:00:17;;;;;;;;;;;;;;;3.78;100.00;97358.28;5092958;28;19915;-65
2021/12/10 01:02:42;;;;;;;;;;;;;;;3.79;100.00;97361.69;5090283;28;19919;-64
2021/12/10 01:05:08;;;;;;;;;;;;;;;3.85;100.00;97366.56;5091402;28;19920;-64
2021/12/10 01:07:35;;;;;;;;;;;;;;;3.76;100.00;97359.22;5089899;28;20007;-64
2021/12/10 01:10:01;;;;;;;;;;;;;;;4.49;100.00;97358.53;5086811;28;19920;-65
2021/12/10 01:12:32;;;;;;;;;;;;;;;4.03;100.00;97354.97;5090927;28;19999;-65
2021/12/10 01:15:18;;;;;;;;;;;;;;;4.26;100.00;97351.66;5090763;28;19926;-65
2021/12/10 01:26:12;;;;;;;;;;;;;;;4.08;100.00;97342.94;5088793;28;19996;-65
2021/12/10 01:28:39;;;;;;;;;;;;;;;3.61;100.00;97341.88;5087162;28;19927;-64
2021/12/10 01:31:04;;;;;;;;;;;;;;;3.72;100.00;97345.75;5089987;28;20347;-65
2021/12/10 01:33:29;;;;;;;;;;;;;;;3.66;100.00;97345.13;5062451;28;19927;-65
2021/12/10 01:35:57;;;;;;;;;;;;;;;3.75;100.00;97352.47;5090514;28;19924;-64
2021/12/10 01:38:23;;;;;;;;;;;;;;;3.58;100.00;97340.28;5088316;28;19967;-65
2021/12/10 01:40:49;;;;;;;;;;;;;;;3.90;100.00;97334.16;5088787;28;20159;-64
2021/12/10 01:43:23;;;;;;;;;;;;;;;3.99;100.00;97322.81;5075123;28;19923;-64
2021/12/10 01:46:06;;;;;;;;;;;;;;;3.95;100.00;97318.72;5094165;28;19945;-65
2021/12/10 01:48:34;;;;;;;;;;;;;;;3.95;100.00;97316.19;5074972;28;19916;-65
2021/12/10 01:51:00;;;;;;;;;;;;;;;3.91;100.00;97309.53;5089945;28;20008;-65
2021/12/10 01:53:26;;;;;;;;;;;;;;;3.92;100.00;97312.03;5094886;28;20377;-65
2021/12/10 01:55:53;;;;;;;;;;;;;;;4.13;100.00;97310.47;5090421;28;20340;-65
2021/12/10 01:58:20;;;;;;;;;;;;;;;3.60;100.00;97302.84;5091138;28;19935;-65
2021/12/10 02:00:47;;;;;;;;;;;;;;;3.82;100.00;97303.00;5094876;28;20286;-66
2021/12/10 02:03:12;;;;;;;;;;;;;;;3.82;100.00;97299.63;5095202;28;19916;-64
2021/12/10 02:05:38;;;;;;;;;;;;;;;3.77;100.00;97303.16;5093622;28;19946;-65
2021/12/10 02:08:03;;;;;;;;;;;;;;;3.59;100.00;97303.75;5099985;28;20329;-65
2021/12/10 02:10:29;;;;;;;;;;;;;;;3.83;100.00;97296.19;5094838;28;20304;-65
2021/12/10 02:12:55;;;;;;;;;;;;;;;3.61;100.00;97290.97;5095267;28;19926;-65
2021/12/10 02:15:22;;;;;;;;;;;;;;;3.57;100.00;97290.22;5096343;28;19959;-65
2021/12/10 02:17:49;;;;;;;;;;;;;;;3.96;100.00;97292.38;5076617;28;19923;-65
2021/12/10 02:20:20;;;;;;;;;;;;;;;3.67;100.00;97289.06;5097077;28;20005;-65
2021/12/10 02:22:46;;;;;;;;;;;;;;;3.84;100.00;97287.69;5098455;28;19958;-65
2021/12/10 02:25:12;;;;;;;;;;;;;;;3.88;100.00;97284.16;5095879;28;19993;-64
2021/12/10 02:27:38;;;;;;;;;;;;;;;3.72;100.00;97284.66;5093287;28;19919;-65
2021/12/10 02:30:05;;;;;;;;;;;;;;;3.88;100.00;97287.53;5095406;28;19923;-65
2021/12/10 02:32:30;;;;;;;;;;;;;;;3.89;100.00;97275.63;5074826;28;20393;-64
2021/12/10 02:34:56;;;;;;;;;;;;;;;3.81;100.00;97269.94;5097650;28;19917;-65
2021/12/10 02:37:21;;;;;;;;;;;;;;;3.87;100.00;97270.59;5097782;28;19920;-65
2021/12/10 02:39:56;;;;;;;;;;;;;;;3.73;100.00;97255.75;5095117;28;19924;-65
2021/12/10 02:42:21;;;;;;;;;;;;;;;3.86;100.00;97260.47;5094616;28;20507;-63
2021/12/10 02:44:46;;;;;;;;;;;;;;;3.77;100.00;97257.31;5097122;28;20337;-64
2021/12/10 02:47:12;;;;;;;;;;;;;;;4.16;100.00;97256.88;5096479;28;19981;-65
2021/12/10 02:49:37;;;;;;;;;;;;;;;4.15;100.00;97250.13;5095717;28;19943;-65
2021/12/10 02:52:03;;;;;;;;;;;;;;;4.00;100.00;97237.91;5096638;28;19922;-65
2021/12/10 02:54:36;;;;;;;;;;;;;;;4.02;100.00;97238.69;5096430;28;20379;-65
2021/12/10 02:57:06;;;;;;;;;;;;;;;4.24;100.00;97246.41;5094208;28;20496;-65
2021/12/10 02:59:32;;;;;;;;;;;;;;;3.85;100.00;97233.31;5094044;28;19959;-65
2021/12/10 03:01:58;;;;;;;;;;;;;;;3.85;100.00;97230.78;5094866;28;20389;-65
2021/12/10 03:04:24;;;;;;;;;;;;;;;3.75;100.00;97223.44;5094650;28;19916;-65
2021/12/10 03:06:51;;;;;;;;;;;;;;;4.05;100.00;97225.84;5096729;28;19938;-65
2021/12/10 03:09:17;;;;;;;;;;;;;;;3.86;100.00;97215.47;5095939;28;19994;-65
2021/12/10 03:11:46;;;;;;;;;;;;;;;4.18;100.00;97214.34;5096041;28;19922;-65
2021/12/10 03:14:12;;;;;;;;;;;;;;;4.05;100.00;97210.56;5097412;28;19915;-65
2021/12/10 03:16:38;;;;;;;;;;;;;;;4.18;100.00;97209.25;5094487;28;20300;-65
2021/12/10 03:19:04;;;;;;;;;;;;;;;3.96;100.00;97190.50;5096244;28;20010;-65
2021/12/10 03:21:29;;;;;;;;;;;;;;;3.81;100.00;97181.69;5096906;28;19920;-65
2021/12/10 03:23:54;;;;;;;;;;;;;;;4.00;100.00;97181.88;5094550;28;20435;-65
2021/12/10 03:26:21;;;;;;;;;;;;;;;3.97;100.00;97176.91;5096039;28;19951;-65
2021/12/10 03:28:47;;;;;;;;;;;;;;;4.21;100.00;97169.25;5095468;28;19912;-64
2021/12/10 03:31:12;;;;;;;;;;;;;;;3.91;100.00;97172.00;5094195;28;20456;-65
2021/12/10 03:33:39;;;;;;;;;;;;;;;4.10;100.00;97174.72;5096941;28;19916;-65
2021/12/10 03:36:04;;;;;;;;;;;;;;;3.77;100.00;97165.66;5092291;28;19920;-65
2021/12/10 03:38:30;;;;;;;;;;;;;;;4.05;100.00;97169.81;5093429;28;19946;-65
2021/12/10 03:40:55;;;;;;;;;;;;;;;4.54;100.00;97167.22;5093556;28;19916;-65
2021/12/10 03:43:22;;;;;;;;;;;;;;;4.45;100.00;97170.94;5091742;28;19912;-65
2021/12/10 03:45:48;;;;;;;;;;;;;;;4.71;100.00;97164.84;5094669;28;19916;-65
2021/12/10 03:48:15;;;;;;;;;;;;;;;4.78;100.00;97156.06;5093686;28;19928;-64
2021/12/10 03:50:41;;;;;;;;;;;;;;;4.81;100.00;97150.00;5094904;28;19915;-65
2021/12/10 03:53:07;;;;;;;;;;;;;;;5.11;100.00;97142.91;5093496;28;19946;-65
2021/12/10 03:55:32;;;;;;;;;;;;;;;4.64;100.00;97137.09;5075632;28;19916;-65
2021/12/10 03:57:58;;;;;;;;;;;;;;;4.69;100.00;97135.19;5074045;28;19939;-65
2021/12/10 04:00:25;;;;;;;;;;;;;;;4.54;100.00;97140.00;5094100;28;19926;-65
2021/12/10 04:02:50;;;;;;;;;;;;;;;4.58;100.00;97131.34;5094836;28;19922;-64
2021/12/10 04:05:16;;;;;;;;;;;;;;;4.71;100.00;97131.69;5092172;28;19920;-64
2021/12/10 04:07:41;;;;;;;;;;;;;;;4.31;100.00;97123.03;5093582;28;20441;-65
2021/12/10 04:10:07;;;;;;;;;;;;;;;4.71;100.00;97113.84;5093813;28;19916;-65
2021/12/10 04:12:33;;;;;;;;;;;;;;;4.81;100.00;97109.22;5092945;28;20008;-66
2021/12/10 04:14:58;;;;;;;;;;;;;;;4.95;100.00;97096.75;5093824;28;20313;-66
2021/12/10 04:17:23;;;;;;;;;;;;;;;4.69;100.00;97096.94;5071604;28;20073;-66
2021/12/10 04:19:50;;;;;;;;;;;;;;;4.79;100.00;97088.88;5092528;28;19981;-65
2021/12/10 04:22:17;;;;;;;;;;;;;;;4.72;100.00;97084.06;5090079;28;19930;-65
2021/12/10 04:24:42;;;;;;;;;;;;;;;4.79;100.00;97081.22;5087218;28;19931;-64
2021/12/10 04:27:12;;;;;;;;;;;;;;;4.79;100.00;97065.13;5092705;28;19928;-65
2021/12/10 04:29:37;;;;;;;;;;;;;;;4.38;100.00;97070.09;5091102;28;19919;-65
2021/12/10 04:32:03;;;;;;;;;;;;;;;4.63;100.00;97069.13;5094311;28;20376;-65
2021/12/10 04:34:28;;;;;;;;;;;;;;;4.37;100.00;97063.34;5076301;28;19920;-64
2021/12/10 04:36:54;;;;;;;;;;;;;;;4.28;100.00;97061.13;5076643;28;19920;-65
2021/12/10 04:39:20;;;;;;;;;;;;;;;4.22;100.00;97053.72;5074072;28;19924;-65
2021/12/10 04:41:45;;;;;;;;;;;;;;;4.55;100.00;97052.44;5094024;28;19920;-65
2021/12/10 04:44:11;;;;;;;;;;;;;;;4.38;100.00;97040.34;5075894;28;19916;-64
2021/12/10 04:46:36;;;;;;;;;;;;;;;4.45;100.00;97030.75;5095164;28;19942;-65
2021/12/10 04:49:06;;;;;;;;;;;;;;;4.20;100.00;97028.31;5092374;28;19994;-63
2021/12/10 04:51:33;;;;;;;;;;;;;;;4.45;100.00;97015.47;5093226;28;19915;-64
2021/12/10 04:53:59;;;;;;;;;;;;;;;4.09;100.00;97008.34;5091710;28;21107;-63
2021/12/10 04:56:25;;;;;;;;;;;;;;;4.34;100.00;97007.41;5093351;28;19915;-64
2021/12/10 04:58:50;;;;;;;;;;;;;;;4.22;100.00;97005.31;5094225;28;19916;-64
2021/12/10 05:01:16;;;;;;;;;;;;;;;3.99;100.00;96994.28;5094063;28;20342;-65
2021/12/10 05:03:42;;;;;;;;;;;;;;;4.11;100.00;96985.38;5094241;28;20014;-64
2021/12/10 05:06:08;;;;;;;;;;;;;;;3.87;100.00;96982.84;5072816;28;20027;-64
2021/12/10 05:08:34;;;;;;;;;;;;;;;4.14;100.00;96980.97;5076868;28;19960;-64
2021/12/10 05:10:59;;;;;;;;;;;;;;;3.82;100.00;96961.00;5095349;28;19924;-65
2021/12/10 05:13:25;;;;;;;;;;;;;;;3.78;100.00;96958.56;5076622;28;19912;-64
2021/12/10 05:15:56;;;;;;;;;;;;;;;3.91;100.00;96963.19;5091497;28;19932;-64
2021/12/10 05:18:26;;;;;;;;;;;;;;;3.73;100.00;96960.44;5090595;28;20404;-64
2021/12/10 05:20:52;;;;;;;;;;;;;;;3.88;100.00;96965.88;5090812;28;19927;-64
2021/12/10 05:23:18;;;;;;;;;;;;;;;4.00;100.00;96967.94;5093201;28;19912;-64
2021/12/10 05:25:43;;;;;;;;;;;;;;;3.76;100.00;96957.81;5072961;28;19995;-65
2021/12/10 05:28:09;;;;;;;;;;;;;;;3.88;100.00;96942.97;5091040;28;19920;-64
2021/12/10 05:30:34;;;;;;;;;;;;;;;3.98;100.00;96941.69;5087555;28;19999;-64
2021/12/10 05:33:01;;;;;;;;;;;;;;;3.80;100.00;96939.84;5090272;28;19920;-65
2021/12/10 05:35:26;;;;;;;;;;;;;;;3.84;100.00;96936.31;5091397;28;20053;-65
2021/12/10 05:37:52;;;;;;;;;;;;;;;3.58;100.00;96930.50;5094246;28;19928;-65
2021/12/10 05:40:17;;;;;;;;;;;;;;;3.78;100.00;96927.19;5078295;28;19916;-65
2021/12/10 05:42:43;;;;;;;;;;;;;;;3.84;100.00;96915.94;5095948;28;19935;-65
2021/12/10 05:45:09;;;;;;;;;;;;;;;3.78;100.00;96920.38;5094955;28;20214;-65
2021/12/10 05:47:34;;;;;;;;;;;;;;;3.43;100.00;96915.78;5100765;28;19912;-64
2021/12/10 05:50:00;;;;;;;;;;;;;;;3.64;100.00;96920.06;5091182;28;19974;-65
2021/12/10 05:52:27;;;;;;;;;;;;;;;3.68;100.00;96916.53;5098103;28;19920;-65
2021/12/10 05:54:52;;;;;;;;;;;;;;;3.48;100.00;96919.00;5094624;28;19911;-70
2021/12/10 05:57:18;;;;;;;;;;;;;;;3.38;100.00;96923.59;5065052;28;19924;-65
2021/12/10 05:59:43;;;;;;;;;;;;;;;3.64;100.00;96920.06;5071077;28;19920;-64
2021/12/10 06:02:09;;;;;;;;;;;;;;;3.94;100.00;96912.16;5071500;28;19919;-65
2021/12/10 06:04:35;;;;;;;;;;;;;;;3.76;100.00;96904.34;5083899;28;19920;-64
2021/12/10 06:07:00;;;;;;;;;;;;;;;3.91;100.00;96897.81;5072923;28;19928;-64
2021/12/10 06:09:26;;;;;;;;;;;;;;;3.81;100.00;96898.22;5090149;28;19957;-64
2021/12/10 06:11:51;;;;;;;;;;;;;;;3.87;100.00;96898.81;5084865;28;19959;-65
2021/12/10 06:14:16;;;;;;;;;;;;;;;3.87;100.00;96895.44;5094674;28;20311;-65
2021/12/10 06:16:42;;;;;;;;;;;;;;;3.66;100.00;96897.13;5087297;28;20373;-65
2021/12/10 06:19:08;;;;;;;;;;;;;;;3.63;100.00;96892.97;5090869;28;19942;-65
2021/12/10 06:21:34;;;;;;;;;;;;;;;3.76;100.00;96888.22;5088598;28;20282;-64
2021/12/10 06:23:59;;;;;;;;;;;;;;;3.68;100.00;96883.44;5073727;28;20459;-64
2021/12/10 06:26:25;;;;;;;;;;;;;;;3.84;100.00;96886.22;5088432;28;19916;-64
2021/12/10 06:28:50;;;;;;;;;;;;;;;3.71;100.00;96890.13;5067240;28;19915;-64
2021/12/10 06:31:17;;;;;;;;;;;;;;;3.62;100.00;96890.47;5089517;28;19919;-65
2021/12/10 06:33:43;;;;;;;;;;;;;;;3.75;100.00;96876.41;5087243;28;19923;-64
2021/12/10 06:36:10;;;;;;;;;;;;;;;3.47;100.00;96881.72;5072354;28;19969;-65
2021/12/10 06:38:35;;;;;;;;;;;;;;;3.60;100.00;96877.78;5088322;28;19924;-65
2021/12/10 06:41:01;;;;;;;;;;;;;;;3.43;100.00;96867.44;5072320;28;19916;-64
2021/12/10 06:43:26;;;;;;;;;;;;;;;3.82;100.00;96867.63;5088616;28;20451;-64
2021/12/10 06:45:52;;;;;;;;;;;;;;;3.78;100.00;96861.81;5067764;28;19919;-65
2021/12/10 06:48:17;;;;;;;;;;;;;;;3.49;100.00;96862.97;5073637;28;19919;-64
2021/12/10 06:50:47;;;;;;;;;;;;;;;3.68;100.00;96860.53;5089388;28;19920;-65
2021/12/10 06:53:12;;;;;;;;;;;;;;;3.42;100.00;96858.16;5088830;28;20026;-65
2021/12/10 06:55:37;;;;;;;;;;;;;;;3.48;100.00;96853.66;5072831;28;20359;-64
2021/12/10 06:58:06;;;;;;;;;;;;;;;3.28;100.00;96849.31;5095730;28;19916;-64
2021/12/10 07:00:43;;;;;;;;;;;;;;;3.63;100.00;96842.06;5093304;28;20216;-64
2021/12/10 07:03:10;;;;;;;;;;;;;;;3.73;100.00;96838.25;5090867;28;20376;-64
2021/12/10 07:05:35;;;;;;;;;;;;;;;3.68;100.00;96835.06;5089433;28;20035;-64
2021/12/10 07:08:01;;;;;;;;;;;;;;;3.51;100.00;96833.19;5092803;28;19955;-65
2021/12/10 07:10:26;;;;;;;;;;;;;;;3.69;100.00;96836.72;5090496;28;19912;-64
2021/12/10 07:12:52;;;;;;;;;;;;;;;3.74;100.00;96832.28;5092958;28;19926;-65
2021/12/10 07:15:17;;;;;;;;;;;;;;;3.77;100.00;96828.78;5098133;27;20394;-65
2021/12/10 07:17:44;;;;;;;;;;;;;;;3.67;100.00;96830.03;5091149;28;19919;-64
2021/12/10 07:20:10;;;;;;;;;;;;;;;3.60;100.00;96829.44;5053451;28;19927;-64
2021/12/10 07:22:35;;;;;;;;;;;;;;;3.74;100.00;96829.75;5095589;28;19912;-65
2021/12/10 07:25:01;;;;;;;;;;;;;;;3.85;100.00;96829.31;5094858;28;20361;-65
2021/12/10 07:27:27;;;;;;;;;;;;;;;3.93;100.00;96823.91;5093046;28;19916;-65
2021/12/10 07:29:52;;;;;;;;;;;;;;;3.39;100.00;96815.84;5094435;28;20492;-65
2021/12/10 07:32:17;;;;;;;;;;;;;;;3.60;100.00;96816.72;5094086;28;19915;-64
2021/12/10 07:34:43;;;;;;;;;;;;;;;3.63;100.00;96821.72;5093781;28;19920;-64
2021/12/10 07:37:10;;;;;;;;;;;;;;;3.82;100.00;96821.78;5090946;28;19927;-64
2021/12/10 07:39:35;;;;;;;;;;;;;;;3.67;100.00;96817.31;5096051;28;20007;-64
2021/12/10 07:42:01;;;;;;;;;;;;;;;3.94;100.00;96815.38;5094596;28;20352;-64
2021/12/10 07:44:27;;;;;;;;;;;;;;;4.68;100.00;96817.41;5089850;28;20322;-63
2021/12/10 07:46:52;;;;;;;;;;;;;;;4.56;100.00;96813.63;5093692;28;19923;-64
2021/12/10 07:49:26;;;;;;;;;;;;;;;3.53;100.00;96810.22;5095131;28;19916;-65
2021/12/10 07:51:54;;;;;;;;;;;;;;;3.98;100.00;96812.63;5094198;28;19916;-62
2021/12/10 07:54:20;;;;;;;;;;;;;;;3.74;100.00;96814.47;5093523;28;19916;-65
2021/12/10 07:56:45;;;;;;;;;;;;;;;4.01;100.00;96811.69;5091088;28;19935;-66
2021/12/10 07:59:10;;;;;;;;;;;;;;;3.94;100.00;96802.66;5095918;28;19920;-65
2021/12/10 08:01:36;;;;;;;;;;;;;;;3.50;100.00;96811.16;5095379;28;20369;-65
2021/12/10 08:04:02;;;;;;;;;;;;;;;3.58;100.00;96810.03;5092435;28;19998;-65
2021/12/10 08:06:28;;;;;;;;;;;;;;;3.38;100.00;96804.03;5092702;28;19959;-65
2021/12/10 08:08:54;;;;;;;;;;;;;;;3.70;100.00;96807.84;5071881;28;19918;-65
2021/12/10 08:11:19;;;;;;;;;;;;;;;3.35;100.00;96797.34;5092859;28;19920;-64
2021/12/10 08:13:44;;;;;;;;;;;;;;;3.59;100.00;96793.91;5090559;28;19916;-65
2021/12/10 08:16:10;;;;;;;;;;;;;;;3.45;100.00;96796.97;5093137;28;20284;-64
2021/12/10 08:18:39;;;;;;;;;;;;;;;3.35;100.00;96784.63;5090781;28;19923;-64
2021/12/10 08:21:05;;;;;;;;;;;;;;;3.54;100.00;96791.53;5090282;28;19916;-64
2021/12/10 08:23:30;;;;;;;;;;;;;;;3.64;100.00;96787.72;5093272;28;19912;-64
2021/12/10 08:25:55;;;;;;;;;;;;;;;3.77;100.00;96788.06;5090663;28;19974;-64
2021/12/10 08:28:23;;;;;;;;;;;;;;;3.52;100.00;96800.94;5092177;28;19955;-65
2021/12/10 08:30:49;;;;;;;;;;;;;;;4.03;100.00;96789.53;5092359;28;19920;-65
2021/12/10 08:33:15;;;;;;;;;;;;;;;4.09;100.00;96784.19;5091617;28;19915;-65
2021/12/10 08:35:42;;;;;;;;;;;;;;;3.83;100.00;96786.97;5093739;28;20377;-65
2021/12/10 08:38:10;;;;;;;;;;;;;;;4.02;100.00;96782.81;5093597;28;20016;-64
2021/12/10 08:40:37;;;;;;;;;;;;;;;3.90;100.00;96780.75;5073326;28;20416;-65
2021/12/10 08:43:03;;;;;;;;;;;;;;;4.11;100.00;96786.69;5093580;28;19916;-65
2021/12/10 08:45:28;;;;;;;;;;;;;;;4.40;100.00;96787.97;5090401;28;19920;-64
2021/12/10 08:47:54;;;;;;;;;;;;;;;4.30;100.00;96786.72;5092733;28;20471;-64
2021/12/10 08:50:22;;;;;;;;;;;;;;;4.34;100.00;96785.72;5092767;28;19955;-65
2021/12/10 08:52:49;;;;;;;;;;;;;;;4.06;100.00;96780.94;5089814;28;19927;-65
2021/12/10 08:55:14;;;;;;;;;;;;;;;4.60;100.00;96790.50;5090172;28;19916;-64
2021/12/10 08:57:40;;;;;;;;;;;;;;;3.91;100.00;96784.97;5088199;28;19927;-65
2021/12/10 09:00:06;;;;;;;;;;;;;;;4.00;100.00;96784.56;5090153;28;19915;-65
2021/12/10 09:02:32;;;;;;;;;;;;;;;4.19;100.00;96779.53;5091958;28;20384;-64
2021/12/10 09:04:58;;;;;;;;;;;;;;;4.44;100.00;96786.97;5089976;28;19985;-64
2021/12/10 09:07:23;;;;;;;;;;;;;;;4.06;100.00;96778.38;5091054;28;20371;-64
2021/12/10 09:09:48;;;;;;;;;;;;;;;4.00;100.00;96784.56;5092028;28;19916;-65
2021/12/10 09:12:20;;;;;;;;;;;;;;;4.07;100.00;96780.06;5090624;28;19920;-65
2021/12/10 09:14:47;;;;;;;;;;;;;;;4.13;100.00;96775.53;5091331;28;19927;-65
2021/12/10 09:17:16;;;;;;;;;;;;;;;3.80;100.00;96789.66;5091027;28;20236;-65
2021/12/10 09:19:44;;;;;;;;;;;;;;;4.12;100.00;96784.06;5091301;28;19920;-66
2021/12/10 09:22:10;;;;;;;;;;;;;;;3.89;100.00;96779.09;5089382;28;20285;-65
2021/12/10 09:24:36;;;;;;;;;;;;;;;4.23;100.00;96785.34;5089004;28;19923;-65
2021/12/10 09:27:02;;;;;;;;;;;;;;;4.79;100.00;96775.22;5068974;28;19923;-65
2021/12/10 09:29:28;;;;;;;;;;;;;;;4.13;100.00;96772.16;5070726;28;19920;-66
2021/12/10 09:31:54;;;;;;;;;;;;;;;4.60;100.00;96776.94;5094563;28;20009;-64
2021/12/10 09:34:19;;;;;;;;;;;;;;;4.95;100.00;96770.28;5070643;28;19934;-64
2021/12/10 09:36:47;;;;;;;;;;;;;;;5.22;100.00;96767.34;5090997;28;20322;-64
2021/12/10 09:39:13;;;;;;;;;;;;;;;4.65;100.00;96767.34;5091722;28;19924;-65
2021/12/10 09:41:38;;;;;;;;;;;;;;;5.05;100.00;96768.13;5088832;28;19916;-65
2021/12/10 09:44:04;;;;;;;;;;;;;;;4.82;100.00;96776.81;5090997;28;19919;-64
2021/12/10 09:46:30;;;;;;;;;;;;;;;4.59;100.00;96773.56;5090602;28;19999;-65
2021/12/10 09:48:58;;;;;;;;;;;;;;;4.94;100.00;96768.59;5090173;28;20307;-65
2021/12/10 09:51:25;;;;;;;;;;;;;;;4.47;100.00;96771.56;5087731;28;19916;-65
2021/12/10 09:53:52;;;;;;;;;;;;;;;4.94;100.00;96760.94;5092122;28;20275;-64
2021/12/10 09:56:17;;;;;;;;;;;;;;;4.77;100.00;96760.91;5089061;28;19923;-65
2021/12/10 09:58:43;;;;;;;;;;;;;;;4.64;100.00;96759.78;5086353;28;20467;-66
2021/12/10 10:01:10;;;;;;;;;;;;;;;4.42;100.00;96758.16;5071694;28;20025;-65
2021/12/10 10:03:37;;;;;;;;;;;;;;;4.83;100.00;96763.16;5090160;28;20428;-65
2021/12/10 10:06:03;;;;;;;;;;;;;;;4.47;100.00;96758.81;5070826;28;20007;-65
2021/12/10 10:08:29;;;;;;;;;;;;;;;5.01;100.00;96751.28;5089607;28;20406;-65
2021/12/10 10:11:01;;;;;;;;;;;;;;;4.60;100.00;96744.59;5091195;28;20293;-65
2021/12/10 10:13:29;;;;;;;;;;;;;;;5.01;100.00;96744.47;5089869;28;19927;-64
2021/12/10 10:15:57;;;;;;;;;;;;;;;4.97;100.00;96732.78;5087732;28;19920;-65
2021/12/10 10:18:23;;;;;;;;;;;;;;;5.21;100.00;96732.53;5073618;28;19920;-64
2021/12/10 10:20:50;;;;;;;;;;;;;;;5.56;100.00;96740.22;5094798;28;19980;-65
2021/12/10 10:23:16;;;;;;;;;;;;;;;5.51;100.00;96732.78;5094364;28;19920;-65
2021/12/10 10:25:44;;;;;;;;;;;;;;;5.16;100.00;96731.91;5092668;28;20396;-66
2021/12/10 10:28:11;;;;;;;;;;;;;;;5.18;100.00;96735.22;5094973;28;19968;-65
2021/12/10 10:30:52;;;;;;;;;;;;;;;5.08;100.00;96747.56;5092677;28;20571;-66
2021/12/10 10:33:17;;;;;;;;;;;;;;;4.81;100.00;96747.94;5093839;28;19923;-66
2021/12/10 10:35:44;;;;;;;;;;;;;;;4.96;100.00;96741.31;5076551;28;19920;-66
2021/12/10 10:38:10;;;;;;;;;;;;;;;4.75;100.00;96732.09;5092005;28;19963;-66
2021/12/10 10:40:38;;;;;;;;;;;;;;;4.85;100.00;96733.31;5093717;28;20398;-66
2021/12/10 10:43:03;;;;;;;;;;;;;;;4.91;100.00;96733.03;5094462;28;19920;-66
2021/12/10 10:45:30;;;;;;;;;;;;;;;4.76;100.00;96739.66;5073028;28;20189;-66
2021/12/10 10:48:01;;;;;;;;;;;;;;;5.05;100.00;96729.84;5095147;28;19965;-66
2021/12/10 10:50:28;;;;;;;;;;;;;;;5.39;100.00;96736.75;5095302;28;20071;-66
2021/12/10 10:52:55;;;;;;;;;;;;;;;6.02;100.00;96733.72;5092221;28;20007;-66
2021/12/10 10:55:23;;;;;;;;;;;;;;;5.22;100.00;96736.72;5074138;28;19927;-66
2021/12/10 10:57:51;;;;;;;;;;;;;;;5.76;100.00;96739.25;5090446;28;20309;-65
2021/12/10 11:00:19;;;;;;;;;;;;;;;5.81;100.00;96727.91;5090523;28;20006;-66
2021/12/10 11:02:52;;;;;;;;;;;;;;;5.53;100.00;96715.66;5091032;28;19941;-66
2021/12/10 11:05:19;;;;;;;;;;;;;;;5.94;100.00;96719.66;5075273;28;19967;-65
2021/12/10 11:07:46;;;;;;;;;;;;;;;5.90;100.00;96720.69;5095124;28;20003;-66
2021/12/10 11:10:12;;;;;;;;;;;;;;;5.56;100.00;96725.72;5074395;28;19927;-66
2021/12/10 11:12:38;;;;;;;;;;;;;;;5.63;100.00;96723.69;5093205;28;19919;-66
2021/12/10 11:15:09;;;;;;;;;;;;;;;5.14;100.00;96718.41;5094894;28;20438;-66
2021/12/10 11:17:36;;;;;;;;;;;;;;;5.61;100.00;96717.84;5094620;28;19931;-67
2021/12/10 11:20:16;;;;;;;;;;;;;;;5.89;100.00;96703.72;5075101;28;20452;-66
2021/12/10 11:23:12;;;;;;;;;;;;;;;5.56;100.00;96709.59;5091796;28;20380;-66
2021/12/10 11:25:38;;;;;;;;;;;;;;;5.50;100.00;96700.50;5091037;28;19970;-66
2021/12/10 11:28:15;;;;;;;;;;;;;;;5.40;100.00;96709.50;5093942;28;19916;-66
2021/12/10 11:30:42;;;;;;;;;;;;;;;5.73;100.00;96717.25;5089110;28;19916;-66
2021/12/10 11:33:09;;;;;;;;;;;;;;;5.51;100.00;96707.25;5092779;28;20464;-66
2021/12/10 11:35:42;;;;;;;;;;;;;;;5.31;100.00;96713.31;5091504;28;19939;-66
2021/12/10 11:38:15;;;;;;;;;;;;;;;5.76;100.00;96714.53;5091394;28;20310;-66
2021/12/10 11:40:49;;;;;;;;;;;;;;;6.12;100.00;96707.72;5092411;28;19912;-66
2021/12/10 11:46:16;;;;;;;;;;;;;;;5.97;100.00;96706.75;5090137;28;21035;-66
2021/12/10 11:48:46;;;;;;;;;;;;;;;5.58;100.00;96708.59;5093561;28;19916;-67
2021/12/10 11:51:13;;;;;;;;;;;;;;;5.82;100.00;96706.59;5094395;28;19916;-66
2021/12/10 11:53:45;;;;;;;;;;;;;;;6.21;100.00;96707.25;5091944;28;19920;-66
2021/12/10 11:56:16;;;;;;;;;;;;;;;5.86;100.00;96702.97;5074203;28;19916;-66
2021/12/10 11:58:41;;;;;;;;;;;;;;;6.23;100.00;96701.13;5091665;28;20011;-65
2021/12/10 12:01:13;;;;;;;;;;;;;;;6.51;100.00;96699.69;5089949;28;20040;-66
2021/12/10 12:03:38;;;;;;;;;;;;;;;6.01;100.00;96693.72;5094407;28;19939;-65
2021/12/10 12:06:04;;;;;;;;;;;;;;;6.33;100.00;96691.25;5092355;28;19913;-66
2021/12/10 12:08:31;;;;;;;;;;;;;;;6.43;100.00;96676.25;5091337;28;19928;-66
2021/12/10 12:10:59;;;;;;;;;;;;;;;6.47;100.00;96678.56;5074118;28;20361;-66
2021/12/10 12:13:33;;;;;;;;;;;;;;;6.23;100.00;96673.03;5091340;28;19959;-65
2021/12/10 12:16:00;;;;;;;;;;;;;;;6.07;100.00;96679.84;5092830;28;19919;-66
2021/12/10 12:18:39;;;;;;;;;;;;;;;5.84;100.00;96671.56;5094786;28;19923;-66
2021/12/10 12:26:52;;;;;;;;;;;;;;;5.97;100.00;96676.91;5010568;28;20565;-66
2021/12/10 12:29:18;;;;;;;;;;;;;;;6.41;100.00;96672.94;5011393;28;19921;-66
2021/12/10 12:31:47;;;;;;;;;;;;;;;6.61;100.00;96669.34;5014616;28;19928;-66
2021/12/10 12:34:19;;;;;;;;;;;;;;;6.80;100.00;96667.47;5017736;28;20470;-66
2021/12/10 12:36:50;;;;;;;;;;;;;;;6.05;100.00;96672.25;5014435;28;20303;-66
2021/12/10 12:39:33;;;;;;;;;;;;;;;6.64;100.00;96669.19;5018582;28;19925;-65
2021/12/10 12:41:59;;;;;;;;;;;;;;;7.54;100.00;96671.84;5019798;28;19967;-65
2021/12/10 12:44:34;;;;;;;;;;;;;;;6.79;100.00;96675.22;5016711;28;19914;-66
2021/12/10 12:47:05;;;;;;;;;;;;;;;6.98;100.00;96668.19;5015375;28;20375;-65
2021/12/10 12:49:32;;;;;;;;;;;;;;;6.82;100.00;96672.47;5017974;28;19992;-66
2021/12/10 12:52:11;;;;;;;;;;;;;;;6.85;100.00;96672.31;5017667;28;20020;-66
2021/12/10 12:54:38;;;;;;;;;;;;;;;6.37;100.00;96666.38;5017235;28;19920;-65
2021/12/10 12:57:04;;;;;;;;;;;;;;;5.66;100.00;96664.84;5015002;28;19913;-66
2021/12/10 12:59:30;;;;;;;;;;;;;;;6.04;100.00;96669.75;5022795;28;19966;-65
2021/12/10 13:01:57;;;;;;;;;;;;;;;5.87;100.00;96676.53;5040162;28;19913;-66
2021/12/10 13:04:27;;;;;;;;;;;;;;;5.31;100.00;96677.59;5038575;28;19913;-65